createdAt,value
2022-11-01T00:44:48.135Z,99.90
2022-11-01T00:47:49.823Z,99.90
2022-11-01T00:50:51.777Z,99.90
2022-11-01T00:53:53.428Z,99.90
2022-11-01T00:56:55.087Z,99.90
2022-11-01T00:59:56.752Z,99.90
2022-11-01T01:02:58.469Z,99.90
2022-11-01T01:06:00.283Z,99.90
2022-11-01T01:09:02.091Z,99.90
2022-11-01T01:12:04.056Z,99.90
2022-11-01T01:15:06.489Z,99.90
2022-11-01T01:18:08.418Z,99.90
2022-11-01T01:21:10.221Z,99.90
2022-11-01T01:24:12.082Z,99.90
2022-11-01T01:27:14.960Z,99.90
2022-11-01T01:30:16.833Z,99.90
2022-11-01T01:33:18.455Z,99.90
2022-11-01T01:36:20.237Z,99.90
2022-11-01T01:39:21.957Z,99.90
2022-11-01T01:42:33.954Z,99.90
2022-11-01T01:45:41.279Z,99.90
2022-11-01T01:48:46.336Z,99.90
2022-11-01T01:51:48.369Z,99.90
2022-11-01T01:54:51.073Z,99.90
2022-11-01T01:57:54.156Z,99.90
2022-11-01T02:00:56.296Z,99.90
2022-11-01T02:03:58.392Z,99.90
2022-11-01T02:07:00.783Z,99.90
2022-11-01T02:10:03.783Z,99.90
2022-11-01T02:13:15.022Z,99.90
2022-11-01T02:16:42.056Z,99.90
2022-11-01T02:20:28.228Z,99.90
2022-11-01T02:23:41.856Z,99.90
2022-11-01T02:27:08.665Z,99.90
2022-11-01T02:30:15.600Z,99.90
2022-11-01T02:33:28.232Z,99.90
2022-11-01T02:36:55.670Z,99.90
2022-11-01T02:40:05.465Z,99.90
2022-11-01T02:43:15.891Z,99.90
2022-11-01T02:46:37.750Z,99.90
2022-11-01T02:49:42.945Z,99.90
2022-11-01T02:52:45.187Z,99.90
2022-11-01T02:55:46.847Z,99.90
2022-11-01T02:58:49.918Z,99.90
2022-11-01T03:02:03.585Z,99.90
2022-11-01T03:05:44.870Z,99.90
2022-11-01T03:08:54.308Z,99.90
2022-11-01T03:12:04.642Z,99.90
2022-11-01T03:15:20.772Z,99.90
2022-11-01T03:19:03.386Z,99.90
2022-11-01T03:22:13.838Z,99.90
2022-11-01T03:25:41.700Z,99.90
2022-11-01T03:28:49.248Z,99.90
2022-11-01T03:31:53.227Z,99.90
2022-11-01T03:34:57.023Z,99.90
2022-11-01T03:38:07.024Z,99.90
2022-11-01T03:41:14.557Z,99.90
2022-11-01T03:44:17.208Z,99.90
2022-11-01T03:47:19.031Z,99.90
2022-11-01T03:50:26.218Z,99.90
2022-11-01T03:53:27.920Z,99.90
2022-11-01T03:56:29.561Z,99.90
2022-11-01T03:59:31.301Z,99.90
2022-11-01T04:02:32.936Z,99.90
2022-11-01T04:05:36.637Z,99.90
2022-11-01T04:08:38.346Z,99.90
2022-11-01T04:11:39.996Z,99.90
2022-11-01T04:15:00.333Z,99.90
2022-11-01T04:18:35.056Z,99.90
2022-11-01T04:21:37.488Z,99.90
2022-11-01T04:24:39.184Z,99.90
2022-11-01T04:27:40.822Z,99.90
2022-11-01T04:30:43.802Z,99.90
2022-11-01T04:33:45.458Z,99.90
2022-11-01T04:36:47.092Z,99.90
2022-11-01T04:39:48.718Z,99.90
2022-11-01T04:42:50.368Z,99.90
2022-11-01T04:45:55.811Z,99.90
2022-11-01T04:48:57.464Z,99.90
2022-11-01T04:51:59.132Z,99.90
2022-11-01T04:55:00.775Z,99.90
2022-11-01T04:58:03.107Z,99.90
2022-11-01T05:01:06.420Z,99.90
2022-11-01T05:04:08.175Z,99.90
2022-11-01T05:07:09.883Z,99.90
2022-11-01T05:10:11.892Z,99.90
2022-11-01T05:13:13.611Z,99.90
2022-11-01T05:16:19.324Z,99.90
2022-11-01T05:19:21.618Z,99.90
2022-11-01T05:22:23.279Z,99.90
2022-11-01T05:25:25.053Z,99.90
2022-11-01T05:28:26.752Z,99.90
2022-11-01T05:31:28.489Z,99.90
2022-11-01T05:34:30.335Z,99.90
2022-11-01T05:37:32.124Z,99.90
2022-11-01T05:40:33.982Z,99.90
2022-11-01T05:43:35.605Z,99.90
2022-11-01T05:46:37.383Z,99.90
2022-11-01T05:49:39.017Z,99.90
2022-11-01T05:52:41.141Z,99.90
2022-11-01T05:55:42.764Z,99.90
2022-11-01T05:58:46.144Z,99.90
2022-11-01T06:01:47.924Z,99.90
2022-11-01T06:04:49.654Z,99.90
2022-11-01T06:07:51.356Z,99.90
2022-11-01T06:10:53.380Z,99.90
2022-11-01T06:13:59.071Z,99.90
2022-11-01T06:17:00.711Z,99.90
2022-11-01T06:20:02.451Z,99.90
2022-11-01T06:23:11.477Z,99.90
2022-11-01T06:26:13.278Z,99.90
2022-11-01T06:29:15.041Z,99.90
2022-11-01T06:32:16.675Z,99.90
2022-11-01T06:35:18.384Z,99.90
2022-11-01T06:38:20.049Z,99.90
2022-11-01T06:41:21.769Z,99.90
2022-11-01T06:44:23.417Z,99.90
2022-11-01T06:47:25.342Z,99.90
2022-11-01T06:50:27.158Z,99.90
2022-11-01T06:53:29.390Z,99.90
2022-11-01T06:56:31.123Z,99.90
2022-11-01T06:59:32.867Z,99.90
2022-11-01T07:02:34.693Z,99.90
2022-11-01T07:05:37.822Z,99.90
2022-11-01T07:08:39.623Z,99.90
2022-11-01T07:11:41.389Z,99.90
2022-11-01T07:14:43.105Z,99.90
2022-11-01T07:17:46.730Z,99.90
2022-11-01T07:20:48.509Z,99.90
2022-11-01T07:23:52.594Z,99.90
2022-11-01T07:26:54.234Z,99.90
2022-11-01T07:29:55.956Z,99.90
2022-11-01T07:33:02.932Z,99.90
2022-11-01T07:36:05.317Z,99.90
2022-11-01T07:39:07.106Z,99.90
2022-11-01T07:42:08.803Z,99.90
2022-11-01T07:45:13.185Z,99.90
2022-11-01T07:48:17.803Z,99.90
2022-11-01T07:51:19.533Z,99.90
2022-11-01T07:54:21.253Z,99.90
2022-11-01T07:57:22.955Z,99.90
2022-11-01T08:00:24.927Z,99.90
2022-11-01T08:03:26.637Z,99.90
2022-11-01T08:06:28.343Z,99.90
2022-11-01T08:09:30.063Z,99.90
2022-11-01T08:12:31.739Z,99.90
2022-11-01T08:15:34.253Z,99.90
2022-11-01T08:18:35.999Z,99.90
2022-11-01T08:21:37.655Z,99.90
2022-11-01T08:24:39.375Z,99.90
2022-11-01T08:27:41.053Z,99.90
2022-11-01T08:30:44.322Z,99.90
2022-11-01T08:33:46.416Z,99.90
2022-11-01T08:36:48.172Z,99.90
2022-11-01T08:39:49.875Z,99.90
2022-11-01T08:42:52.029Z,99.90
2022-11-01T08:45:53.742Z,99.90
2022-11-01T08:49:00.391Z,99.90
2022-11-01T08:52:02.172Z,99.90
2022-11-01T08:55:04.093Z,99.90
2022-11-01T08:58:06.585Z,99.90
2022-11-01T09:01:08.604Z,99.90
2022-11-01T09:04:10.423Z,99.90
2022-11-01T09:07:12.088Z,99.90
2022-11-01T09:10:14.175Z,99.90
2022-11-01T09:13:15.837Z,99.90
2022-11-01T09:16:17.540Z,99.90
2022-11-01T09:19:19.610Z,99.90
2022-11-01T09:22:21.479Z,99.90
2022-11-01T09:25:23.147Z,99.90
2022-11-01T09:28:25.616Z,99.90
2022-11-01T09:31:29.859Z,99.90
2022-11-01T09:34:31.634Z,99.90
2022-11-01T09:37:33.357Z,99.90
2022-11-01T09:40:44.012Z,99.90
2022-11-01T09:43:46.764Z,99.80
2022-11-01T09:47:29.071Z,99.00
2022-11-01T09:50:34.781Z,99.00
2022-11-01T09:53:36.534Z,97.40
2022-11-01T09:56:48.167Z,96.60
2022-11-01T10:00:05.615Z,97.10
2022-11-01T10:06:19.354Z,97.20
2022-11-01T10:09:45.048Z,94.70
2022-11-01T10:13:07.428Z,95.40
2022-11-01T10:16:15.129Z,94.10
2022-11-01T10:19:18.981Z,94.80
2022-11-01T10:22:40.954Z,94.20
2022-11-01T10:25:51.213Z,93.90
2022-11-01T10:29:04.854Z,95.20
2022-11-01T10:32:24.259Z,94.90
2022-11-01T10:35:40.447Z,95.30
2022-11-01T10:42:15.337Z,94.10
2022-11-01T10:45:19.222Z,94.50
2022-11-01T10:48:38.308Z,94.40
2022-11-01T10:51:41.996Z,93.60
2022-11-01T10:54:44.871Z,94.20
2022-11-01T10:58:03.732Z,94.20
2022-11-01T11:01:09.848Z,94.90
2022-11-01T11:04:17.506Z,94.50
2022-11-01T11:07:24.009Z,95.20
2022-11-01T11:10:28.863Z,95.50
2022-11-01T11:13:31.629Z,94.80
2022-11-01T11:16:42.681Z,93.90
2022-11-01T11:19:46.740Z,93.60
2022-11-01T11:22:48.499Z,92.10
2022-11-01T11:25:50.650Z,91.80
2022-11-01T11:28:56.374Z,92.00
2022-11-01T11:32:00.150Z,91.60
2022-11-01T11:35:19.128Z,89.40
2022-11-01T11:38:40.338Z,87.10
2022-11-01T11:41:44.288Z,85.50
2022-11-01T11:44:55.731Z,84.90
2022-11-01T11:48:16.717Z,83.40
2022-11-01T11:51:20.647Z,81.60
2022-11-01T11:54:31.437Z,80.50
2022-11-01T11:57:34.271Z,79.10
2022-11-01T12:00:37.728Z,79.10
2022-11-01T12:03:53.718Z,78.60
2022-11-01T12:06:55.513Z,80.30
2022-11-01T12:10:03.130Z,83.30
2022-11-01T12:13:36.829Z,83.90
2022-11-01T12:16:42.608Z,83.40
2022-11-01T12:19:44.486Z,78.80
2022-11-01T12:23:14.019Z,78.30
2022-11-01T12:26:18.278Z,83.00
2022-11-01T12:29:30.085Z,78.60
2022-11-01T12:32:49.229Z,73.10
2022-11-01T12:35:54.570Z,73.20
2022-11-01T12:39:12.789Z,75.00
2022-11-01T12:42:22.519Z,78.90
2022-11-01T12:45:45.507Z,81.00
2022-11-01T12:48:54.586Z,82.30
2022-11-01T12:52:03.076Z,85.20
2022-11-01T12:55:35.991Z,85.00
2022-11-01T12:58:38.103Z,85.60
2022-11-01T13:01:42.741Z,86.50
2022-11-01T13:05:08.116Z,87.00
2022-11-01T13:08:35.610Z,85.20
2022-11-01T13:11:48.968Z,81.70
2022-11-01T13:15:05.238Z,79.70
2022-11-01T13:18:23.668Z,82.20
2022-11-01T13:32:03.751Z,85.30
2022-11-01T13:35:42.757Z,87.00
2022-11-01T13:38:53.788Z,86.60
2022-11-01T13:42:11.558Z,88.00
2022-11-01T13:45:13.152Z,87.50
2022-11-01T13:48:36.957Z,86.50
2022-11-01T13:51:38.680Z,84.80
2022-11-01T13:55:03.562Z,84.40
2022-11-01T13:58:06.147Z,88.70
2022-11-01T14:01:35.355Z,89.30
2022-11-01T14:04:38.267Z,88.90
2022-11-01T14:07:45.641Z,90.00
2022-11-01T14:10:48.625Z,90.60
2022-11-01T14:13:50.294Z,90.20
2022-11-01T14:16:52.007Z,89.60
2022-11-01T14:19:56.349Z,89.80
2022-11-01T14:22:58.840Z,90.30
2022-11-01T14:26:18.625Z,90.50
2022-11-01T14:29:20.315Z,90.40
2022-11-01T14:32:26.522Z,90.60
2022-11-01T14:35:33.404Z,90.90
2022-11-01T14:38:40.509Z,90.90
2022-11-01T14:41:44.569Z,91.50
2022-11-01T14:44:50.518Z,91.50
2022-11-01T14:47:56.126Z,91.60
2022-11-01T14:51:23.908Z,91.70
2022-11-01T14:54:48.635Z,92.90
2022-11-01T14:57:50.495Z,92.90
2022-11-01T15:00:55.271Z,92.30
2022-11-01T15:03:59.937Z,92.60
2022-11-01T15:07:01.698Z,93.10
2022-11-01T15:10:05.275Z,93.30
2022-11-01T15:13:07.212Z,93.80
2022-11-01T15:16:26.594Z,93.20
2022-11-01T15:19:33.816Z,93.90
2022-11-01T15:22:35.527Z,93.90
2022-11-01T15:25:37.507Z,94.30
2022-11-01T15:29:01.306Z,94.40
2022-11-01T15:32:03.544Z,94.90
2022-11-01T15:35:21.013Z,94.70
2022-11-01T15:38:23.448Z,95.20
2022-11-01T15:41:29.247Z,95.40
2022-11-01T15:44:30.910Z,95.80
2022-11-01T15:47:34.554Z,96.20
2022-11-01T15:50:40.090Z,95.80
2022-11-01T15:53:43.019Z,95.70
2022-11-01T15:56:51.297Z,95.60
2022-11-01T16:00:29.691Z,95.40
2022-11-01T16:03:42.469Z,95.30
2022-11-01T16:06:57.376Z,95.60
2022-11-01T16:10:03.359Z,95.50
2022-11-01T16:13:05.679Z,95.60
2022-11-01T16:16:11.558Z,95.70
2022-11-01T16:19:34.491Z,95.90
2022-11-01T16:22:45.313Z,96.10
2022-11-01T16:26:00.172Z,96.20
2022-11-01T16:29:01.802Z,96.60
2022-11-01T16:32:10.043Z,97.30
2022-11-01T16:35:31.871Z,97.10
2022-11-01T16:38:33.496Z,97.70
2022-11-01T16:41:39.924Z,97.40
2022-11-01T16:44:44.140Z,97.80
2022-11-01T16:47:45.779Z,98.40
2022-11-01T16:50:47.459Z,98.50
2022-11-01T16:53:50.359Z,99.00
2022-11-01T16:56:54.466Z,99.90
2022-11-01T16:59:56.464Z,99.90
2022-11-01T17:02:59.373Z,99.90
2022-11-01T17:06:01.019Z,99.90
2022-11-01T17:09:02.818Z,99.90
2022-11-01T17:12:04.559Z,99.90
2022-11-01T17:15:06.542Z,99.90
2022-11-01T17:18:13.967Z,99.90
2022-11-01T17:21:15.709Z,99.90
2022-11-01T17:24:20.716Z,99.90
2022-11-01T17:27:22.431Z,99.90
2022-11-01T17:30:24.344Z,99.40
2022-11-01T17:33:26.025Z,99.30
2022-11-01T17:36:27.739Z,99.40
2022-11-01T17:39:30.291Z,99.40
2022-11-01T17:42:31.924Z,99.60
2022-11-01T17:45:33.573Z,99.60
2022-11-01T17:48:35.218Z,99.40
2022-11-01T17:51:36.869Z,99.30
2022-11-01T17:54:38.627Z,99.50
2022-11-01T17:57:41.282Z,99.70
2022-11-01T18:00:43.424Z,99.90
2022-11-01T18:03:45.257Z,99.70
2022-11-01T18:06:46.919Z,99.70
2022-11-01T18:09:49.452Z,99.60
2022-11-01T18:12:55.947Z,99.70
2022-11-01T18:16:21.057Z,99.90
2022-11-01T18:19:41.911Z,99.90
2022-11-01T18:22:52.993Z,99.90
2022-11-01T18:25:54.739Z,99.90
2022-11-01T18:29:14.145Z,99.90
2022-11-01T18:32:42.087Z,99.90
2022-11-01T18:35:54.835Z,99.90
2022-11-01T18:39:20.222Z,99.90
2022-11-01T18:42:22.719Z,99.90
2022-11-01T18:45:33.079Z,99.90
2022-11-01T18:48:41.935Z,99.90
2022-11-01T18:51:44.405Z,99.90
2022-11-01T18:54:53.592Z,99.90
2022-11-01T18:57:59.299Z,99.90
2022-11-01T19:01:31.598Z,99.90
2022-11-01T19:04:35.659Z,99.90
2022-11-01T19:07:57.411Z,99.90
2022-11-01T19:10:59.105Z,99.90
2022-11-01T19:14:02.156Z,99.90
2022-11-01T19:17:04.180Z,99.90
2022-11-01T19:20:34.264Z,99.90
2022-11-01T19:23:37.909Z,99.90
2022-11-01T19:26:42.462Z,99.90
2022-11-01T19:29:44.173Z,99.90
2022-11-01T19:32:45.891Z,99.90
2022-11-01T19:35:53.632Z,99.90
2022-11-01T19:38:55.286Z,99.90
2022-11-01T19:42:14.912Z,99.90
2022-11-01T19:45:29.893Z,99.90
2022-11-01T19:48:32.235Z,99.90
2022-11-01T19:51:35.272Z,99.90
2022-11-01T19:54:39.920Z,99.90
2022-11-01T19:57:44.876Z,99.90
2022-11-01T20:00:47.095Z,99.90
2022-11-01T20:03:55.303Z,99.90
2022-11-01T20:07:01.277Z,99.90
2022-11-01T20:10:06.132Z,99.90
2022-11-01T20:13:07.774Z,99.90
2022-11-01T20:16:09.483Z,99.90
2022-11-01T20:19:13.288Z,99.90
2022-11-01T20:22:19.308Z,99.90
2022-11-01T20:25:21.035Z,99.90
2022-11-01T20:28:22.845Z,99.90
2022-11-01T20:31:26.305Z,99.90
2022-11-01T20:34:28.688Z,99.90
2022-11-01T20:37:31.047Z,99.90
2022-11-01T20:40:32.837Z,99.90
2022-11-01T20:43:34.743Z,99.90
2022-11-01T20:46:36.394Z,99.90
2022-11-01T20:49:38.063Z,99.90
2022-11-01T20:52:40.375Z,99.90
2022-11-01T20:55:43.117Z,99.90
2022-11-01T20:58:44.787Z,99.90
2022-11-01T21:01:46.573Z,99.90
2022-11-01T21:04:55.652Z,99.90
2022-11-01T21:08:05.823Z,99.90
2022-11-01T21:11:19.970Z,99.90
2022-11-01T21:14:22.994Z,99.90
2022-11-01T21:17:24.721Z,99.90
2022-11-01T21:20:27.262Z,99.90
2022-11-01T21:23:35.376Z,99.90
2022-11-01T21:26:39.923Z,99.90
2022-11-01T21:29:44.644Z,99.90
2022-11-01T21:32:47.101Z,99.90
2022-11-01T21:35:53.275Z,99.90
2022-11-01T21:38:58.155Z,99.90
2022-11-01T21:42:29.462Z,99.90
2022-11-01T21:45:32.594Z,99.90
2022-11-01T21:48:34.255Z,99.90
2022-11-01T21:51:35.932Z,99.90
2022-11-01T21:54:39.471Z,99.90
2022-11-01T21:57:41.144Z,99.90
2022-11-01T22:00:42.791Z,99.90
2022-11-01T22:03:44.476Z,99.90
2022-11-01T22:06:47.845Z,99.90
2022-11-01T22:09:49.500Z,99.90
2022-11-01T22:12:51.278Z,99.90
2022-11-01T22:15:52.991Z,99.90
2022-11-01T22:18:54.688Z,99.90
2022-11-01T22:21:56.458Z,99.90
2022-11-01T22:24:58.162Z,99.90
2022-11-01T22:27:59.835Z,99.90
2022-11-01T22:31:01.487Z,99.90
2022-11-01T22:34:03.171Z,99.90
2022-11-01T22:37:14.527Z,99.90
2022-11-01T22:40:16.824Z,99.90
2022-11-01T22:43:19.157Z,99.90
2022-11-01T22:46:26.711Z,99.90
2022-11-01T22:49:30.232Z,99.90
2022-11-01T22:52:36.793Z,99.90
2022-11-01T22:55:41.412Z,99.90
2022-11-01T22:58:43.967Z,99.90
2022-11-01T23:01:45.792Z,99.90
2022-11-01T23:04:47.899Z,99.90
2022-11-01T23:07:52.276Z,99.90
2022-11-01T23:10:54.266Z,99.90
2022-11-01T23:14:14.425Z,99.90
2022-11-01T23:17:34.505Z,99.90
2022-11-01T23:20:36.847Z,99.90
2022-11-01T23:23:43.709Z,99.90
2022-11-01T23:26:45.428Z,99.90
2022-11-01T23:29:49.559Z,99.90
2022-11-01T23:32:51.649Z,99.90
2022-11-01T23:35:58.150Z,99.90
2022-11-01T23:39:13.569Z,99.90
2022-11-01T23:42:20.037Z,99.90
2022-11-01T23:45:32.196Z,99.90
2022-11-01T23:48:34.093Z,99.90
2022-11-01T23:51:36.292Z,99.90
2022-11-01T23:54:43.472Z,99.90
2022-11-01T23:57:45.539Z,99.90
